Time;durP1;ratioP1;P1;durP2;ratioP2;P2;SDS_P1;SDS_P2;PMS_P1;PMS_P2;Temp;Humidity;BMP_temperature;BMP_pressure;BME280_temperature;BME280_humidity;BME280_pressure;Samples;Min_cycle;Max_cycle;Signal;HPM_P1;HPM_P2
2022/03/09 07:00:19;;;;;;;35.38;10.85;;;;;;;3.11;56.70;101015.94;5044209;27;106654;-67
2022/03/09 07:02:45;;;;;;;23.58;12.38;;;;;;;3.35;56.66;101010.00;5044475;27;106509;-67
2022/03/09 07:05:11;;;;;;;24.40;10.57;;;;;;;3.62;56.87;101004.63;5039923;27;106448;-72
2022/03/09 07:07:38;;;;;;;22.20;11.18;;;;;;;3.94;57.16;101003.34;5041514;27;105971;-72
2022/03/09 07:10:04;;;;;;;28.50;11.35;;;;;;;4.27;57.23;101004.59;5025651;27;107294;-75
2022/03/09 07:12:30;;;;;;;29.55;11.25;;;;;;;4.61;56.62;101008.28;5022030;27;106286;-74
2022/03/09 07:14:55;;;;;;;22.58;11.38;;;;;;;4.92;56.13;101000.72;5022874;27;106208;-75
2022/03/09 07:17:21;;;;;;;20.85;11.35;;;;;;;5.26;55.89;101008.78;5024021;27;105944;-71
2022/03/09 07:19:46;;;;;;;27.98;10.90;;;;;;;5.57;55.86;101001.16;5043506;27;106325;-72
2022/03/09 07:22:11;;;;;;;24.05;10.43;;;;;;;5.89;55.26;100997.81;5044147;27;105823;-74
2022/03/09 07:24:37;;;;;;;18.35;11.15;;;;;;;6.16;54.66;100996.66;5044190;27;106211;-72
2022/03/09 07:27:02;;;;;;;23.95;11.35;;;;;;;6.41;54.48;101003.47;5044100;27;105999;-68
2022/03/09 07:29:28;;;;;;;25.42;11.63;;;;;;;6.74;54.21;100999.91;5043382;27;105882;-71
2022/03/09 07:31:54;;;;;;;21.27;10.43;;;;;;;7.02;53.44;100997.63;5044484;27;106001;-73
2022/03/09 07:34:22;;;;;;;21.33;11.13;;;;;;;7.28;53.46;100999.91;5044175;27;106227;-72
2022/03/09 07:36:48;;;;;;;21.58;10.52;;;;;;;7.56;52.35;100993.13;5043771;27;106400;-68
2022/03/09 07:39:14;;;;;;;28.38;12.05;;;;;;;7.91;52.46;101001.66;5043626;27;105923;-69
2022/03/09 07:41:40;;;;;;;21.65;10.73;;;;;;;8.24;51.44;100999.69;5044292;27;106326;-69
2022/03/09 07:44:05;;;;;;;24.75;11.18;;;;;;;8.54;50.80;100995.31;5044299;27;106536;-73
2022/03/09 07:46:30;;;;;;;35.22;14.48;;;;;;;8.76;49.80;100992.41;5043540;27;105961;-71
2022/03/09 07:48:56;;;;;;;31.15;11.45;;;;;;;9.04;49.18;100995.22;5043790;27;105780;-72
2022/03/09 07:51:21;;;;;;;23.30;9.88;;;;;;;9.30;48.73;100986.66;5044516;27;105682;-74
2022/03/09 07:53:46;;;;;;;23.30;11.40;;;;;;;9.63;48.60;100985.31;5044775;27;105849;-74
2022/03/09 07:56:12;;;;;;;18.88;10.05;;;;;;;9.94;47.69;100971.75;5035978;27;113595;-74
2022/03/09 07:58:38;;;;;;;19.75;10.20;;;;;;;10.31;46.93;100986.03;5022788;27;106018;-78
2022/03/09 08:01:04;;;;;;;18.70;9.70;;;;;;;10.63;46.26;100993.56;5023913;27;106301;-76
2022/03/09 08:03:30;;;;;;;22.13;11.23;;;;;;;10.93;45.57;100988.84;5024123;28;106429;-79
2022/03/09 08:05:55;;;;;;;30.70;11.18;;;;;;;11.21;44.52;100985.22;5022972;27;105955;-81
2022/03/09 08:08:20;;;;;;;21.58;10.30;;;;;;;11.49;43.54;100978.75;5022785;27;106917;-71
2022/03/09 08:10:46;;;;;;;25.17;9.82;;;;;;;11.76;43.00;100979.59;5015313;27;106092;-71
2022/03/09 08:13:11;;;;;;;23.17;10.02;;;;;;;12.06;42.37;100977.44;5009707;28;106006;-72
2022/03/09 08:15:37;;;;;;;19.25;9.75;;;;;;;12.49;41.40;100972.03;5009207;28;106313;-70
2022/03/09 08:18:03;;;;;;;15.95;8.05;;;;;;;12.67;40.80;100972.75;5009621;28;106040;-76
2022/03/09 08:20:28;;;;;;;18.13;9.25;;;;;;;13.06;39.52;100976.63;5010140;28;106109;-75
2022/03/09 08:22:54;;;;;;;20.45;8.77;;;;;;;13.54;39.04;100966.91;5010381;28;105920;-72
2022/03/09 08:25:19;;;;;;;16.67;8.88;;;;;;;13.96;38.21;100969.47;5009829;28;105879;-68
2022/03/09 08:27:44;;;;;;;17.63;8.65;;;;;;;14.49;36.98;100980.41;5013724;28;105930;-75
2022/03/09 08:30:10;;;;;;;17.60;8.90;;;;;;;14.81;35.61;100974.03;5011646;28;105968;-74
2022/03/09 08:32:35;;;;;;;14.82;8.00;;;;;;;15.29;34.78;100975.66;5010039;28;106625;-74
2022/03/09 08:35:01;;;;;;;18.63;8.55;;;;;;;16.07;33.45;100970.81;5009696;28;106264;-69
2022/03/09 08:37:26;;;;;;;17.40;8.93;;;;;;;18.03;31.50;100977.72;5010004;28;105994;-76
2022/03/09 08:39:51;;;;;;;15.00;6.75;;;;;;;20.61;30.66;100976.16;5010269;28;105894;-70
2022/03/09 08:42:17;;;;;;;18.75;8.00;;;;;;;23.37;27.03;100984.69;5017564;28;106002;-70
2022/03/09 08:44:42;;;;;;;13.00;8.05;;;;;;;25.45;22.90;100986.50;5019113;28;106127;-72
2022/03/09 08:47:08;;;;;;;12.45;6.85;;;;;;;27.07;20.38;100988.94;5021000;28;106406;-73
2022/03/09 08:49:35;;;;;;;13.60;6.65;;;;;;;28.30;18.43;100989.63;5027846;27;105895;-73
2022/03/09 08:52:01;;;;;;;14.73;6.47;;;;;;;29.49;17.54;100992.47;5029926;28;106158;-74
2022/03/09 08:54:27;;;;;;;10.60;6.32;;;;;;;30.77;16.49;100990.22;5020523;28;106071;-74
2022/03/09 08:56:52;;;;;;;15.85;7.22;;;;;;;31.93;15.27;100994.03;5023867;27;107046;-71
2022/03/09 08:59:17;;;;;;;11.55;7.22;;;;;;;32.75;14.63;100994.03;5029939;28;106964;-72
2022/03/09 09:01:42;;;;;;;15.02;7.93;;;;;;;33.80;13.78;100984.44;5029006;28;119251;-68
2022/03/09 09:04:08;;;;;;;14.40;8.23;;;;;;;34.57;13.20;100982.72;5029439;28;107196;-68
2022/03/09 09:06:33;;;;;;;11.82;7.78;;;;;;;35.58;12.86;100996.19;5029504;28;105991;-67
2022/03/09 09:08:59;;;;;;;14.25;8.10;;;;;;;36.55;12.02;100997.19;5030247;28;106086;-66
2022/03/09 09:11:24;;;;;;;14.90;7.97;;;;;;;37.31;11.65;100987.44;5029632;28;105934;-68
2022/03/09 09:13:49;;;;;;;11.38;8.95;;;;;;;37.93;10.93;100985.19;5029095;28;106041;-69
2022/03/09 09:16:15;;;;;;;13.35;9.20;;;;;;;38.63;10.62;100990.22;5029384;28;110246;-67
2022/03/09 09:18:40;;;;;;;16.40;9.55;;;;;;;39.25;10.03;100987.63;5030001;28;105940;-67
2022/03/09 09:21:05;;;;;;;16.13;9.02;;;;;;;39.66;9.54;100985.78;5029497;27;106342;-65
2022/03/09 09:23:31;;;;;;;13.63;8.65;;;;;;;40.04;9.54;100987.34;5028034;28;105806;-66
2022/03/09 09:25:56;;;;;;;12.07;8.57;;;;;;;40.58;8.87;100979.75;5028841;28;106035;-67
2022/03/09 09:28:21;;;;;;;14.35;8.90;;;;;;;41.21;8.46;100992.22;5029383;28;105912;-66
2022/03/09 09:30:48;;;;;;;13.52;8.52;;;;;;;41.58;7.81;100991.94;5029108;28;106514;-70
2022/03/09 09:33:13;;;;;;;10.73;8.02;;;;;;;42.07;7.83;100996.25;5026439;27;108018;-66
2022/03/09 09:35:38;;;;;;;13.80;8.35;;;;;;;42.60;7.21;100985.34;5028551;28;108004;-66
2022/03/09 09:38:07;;;;;;;14.88;9.00;;;;;;;42.99;7.17;100986.47;5029414;28;106238;-66
2022/03/09 09:40:35;;;;;;;10.30;7.93;;;;;;;43.73;6.78;100988.91;5028976;28;106187;-75
2022/03/09 09:43:07;;;;;;;11.50;7.60;;;;;;;43.98;6.13;100982.84;5028644;27;106960;-71
2022/03/09 09:45:34;;;;;;;9.68;7.78;;;;;;;43.92;6.04;100990.81;5028681;27;106065;-72
2022/03/09 09:48:01;;;;;;;8.98;6.93;;;;;;;43.95;6.35;100989.22;5029540;27;106400;-66
2022/03/09 09:50:26;;;;;;;11.57;7.28;;;;;;;43.81;5.91;100989.00;5028660;28;106410;-64
2022/03/09 09:52:52;;;;;;;10.25;7.60;;;;;;;43.14;6.27;100993.16;5028857;28;106270;-73
2022/03/09 09:55:17;;;;;;;10.02;6.97;;;;;;;43.73;5.75;100986.09;5028398;28;106171;-67
2022/03/09 09:57:46;;;;;;;10.35;7.57;;;;;;;43.53;5.54;100981.81;5029758;27;106108;-83
2022/03/09 10:00:12;;;;;;;9.00;7.30;;;;;;;43.42;5.84;100985.22;5028590;28;106198;-76
2022/03/09 10:02:40;;;;;;;13.27;7.55;;;;;;;42.90;5.56;100987.53;5028306;28;106034;-69
2022/03/09 10:05:05;;;;;;;11.85;6.95;;;;;;;43.18;5.61;100997.63;5028362;28;105939;-67
2022/03/09 10:07:30;;;;;;;9.90;7.45;;;;;;;43.77;5.38;100991.75;5029566;28;106112;-68
2022/03/09 10:09:56;;;;;;;8.90;6.18;;;;;;;43.68;5.47;100985.63;5029192;27;105891;-66
2022/03/09 10:12:27;;;;;;;8.50;6.13;;;;;;;44.06;5.06;100984.56;5027784;28;121613;-67
2022/03/09 10:14:53;;;;;;;9.10;7.18;;;;;;;44.02;5.13;100989.31;5028053;27;106418;-65
2022/03/09 10:17:25;;;;;;;8.13;5.10;;;;;;;43.63;5.04;100992.34;5028622;27;105965;-68
2022/03/09 10:19:53;;;;;;;8.00;5.07;;;;;;;44.10;4.86;100981.78;5028122;28;108287;-68
2022/03/09 10:22:59;;;;;;;10.07;6.38;;;;;;;44.69;4.59;100986.91;5027856;27;106857;-66
2022/03/09 10:25:25;;;;;;;12.07;6.60;;;;;;;44.57;4.99;100982.34;5025413;28;106417;-67
2022/03/09 10:27:55;;;;;;;6.95;6.18;;;;;;;44.93;4.63;100979.91;5028094;27;105890;-72
2022/03/09 10:30:30;;;;;;;7.32;5.45;;;;;;;45.07;4.61;100977.28;5027998;27;106214;-70
2022/03/09 10:32:58;;;;;;;8.05;5.63;;;;;;;45.66;4.50;100976.50;5027469;28;106431;-69
2022/03/09 10:35:29;;;;;;;7.87;5.60;;;;;;;45.37;4.42;100976.28;5027614;28;106179;-72
2022/03/09 10:37:56;;;;;;;11.10;5.78;;;;;;;45.64;4.31;100973.25;5027302;27;106461;-68
2022/03/09 10:40:22;;;;;;;7.93;5.30;;;;;;;46.18;4.25;100969.88;5025594;28;106216;-72
2022/03/09 10:42:49;;;;;;;7.28;5.07;;;;;;;46.91;3.78;100980.16;5007603;28;106126;-72
2022/03/09 10:45:17;;;;;;;12.57;5.50;;;;;;;47.49;3.82;100974.50;5007677;28;106585;-70
2022/03/09 10:47:48;;;;;;;7.25;5.53;;;;;;;47.87;3.45;100972.00;5008646;28;106014;-72
2022/03/09 10:50:25;;;;;;;8.15;6.20;;;;;;;48.16;3.25;100966.25;5008176;28;106183;-70
2022/03/09 10:53:03;;;;;;;7.00;4.82;;;;;;;47.85;3.55;100971.63;5007611;28;106615;-65
2022/03/09 10:55:37;;;;;;;6.35;4.20;;;;;;;47.55;3.23;100964.44;5007824;28;105777;-69
2022/03/09 10:58:14;;;;;;;6.63;4.45;;;;;;;47.62;2.86;100958.75;5008250;28;106445;-71
2022/03/09 11:00:44;;;;;;;6.50;4.85;;;;;;;47.38;3.29;100960.38;5006336;28;106030;-73
2022/03/09 11:03:15;;;;;;;8.27;4.88;;;;;;;47.47;3.34;100954.38;5007741;28;106635;-68
2022/03/09 11:05:47;;;;;;;10.88;5.88;;;;;;;47.77;3.40;100956.72;5007512;28;106136;-70
2022/03/09 11:08:14;;;;;;;5.90;4.95;;;;;;;48.09;3.09;100955.75;5008116;28;105931;-71
2022/03/09 11:10:39;;;;;;;8.30;5.78;;;;;;;48.55;3.11;100951.09;5007542;28;106169;-65
2022/03/09 11:13:05;;;;;;;7.25;5.40;;;;;;;49.14;2.82;100955.84;4970613;27;106213;-64
2022/03/09 11:15:30;;;;;;;6.72;5.93;;;;;;;49.27;2.81;100953.34;4995752;28;106505;-65
2022/03/09 11:17:56;;;;;;;9.23;6.18;;;;;;;49.41;2.83;100950.34;5008224;28;106085;-64
2022/03/09 11:20:22;;;;;;;8.48;5.40;;;;;;;49.18;2.73;100944.53;5006993;28;106260;-68
2022/03/09 11:22:49;;;;;;;10.23;5.30;;;;;;;48.97;2.80;100952.00;5007193;28;105983;-65
2022/03/09 11:25:15;;;;;;;7.25;4.80;;;;;;;48.95;2.78;100955.25;5004223;28;106467;-66
2022/03/09 11:27:47;;;;;;;8.27;5.82;;;;;;;48.91;2.77;100953.66;4998178;28;106267;-71
2022/03/09 11:30:27;;;;;;;7.72;5.10;;;;;;;48.73;2.68;100948.91;4999352;28;106219;-69
2022/03/09 11:32:55;;;;;;;11.43;5.22;;;;;;;49.09;2.61;100948.66;5006956;28;107174;-71
2022/03/09 11:35:40;;;;;;;8.07;4.90;;;;;;;49.07;2.52;100953.91;5006029;28;106136;-65
2022/03/09 11:38:34;;;;;;;8.75;5.60;;;;;;;49.52;2.33;100946.59;5007506;28;106087;-65
2022/03/09 11:41:20;;;;;;;6.55;5.28;;;;;;;50.07;2.18;100947.56;4996174;28;106638;-66
2022/03/09 11:43:46;;;;;;;9.55;5.78;;;;;;;50.27;2.22;100950.53;5006494;28;106169;-73
2022/03/09 11:46:11;;;;;;;9.15;5.68;;;;;;;50.13;2.47;100943.03;5008382;28;106385;-70
2022/03/09 11:48:56;;;;;;;7.75;5.75;;;;;;;50.59;2.02;100938.69;5010783;28;105990;-74
2022/03/09 11:51:29;;;;;;;8.93;5.70;;;;;;;50.56;1.93;100935.94;5009552;28;106446;-71
2022/03/09 11:53:59;;;;;;;8.63;7.78;;;;;;;50.29;2.20;100942.38;5009939;28;106606;-71
2022/03/09 11:56:29;;;;;;;11.23;6.90;;;;;;;50.78;2.03;100940.03;5009915;28;105970;-71
2022/03/09 11:59:12;;;;;;;10.60;6.30;;;;;;;51.17;1.49;100936.94;5009996;28;106119;-72
2022/03/09 12:01:58;;;;;;;8.68;5.68;;;;;;;50.75;1.82;100943.72;5010323;28;106141;-75
2022/03/09 12:04:45;;;;;;;7.15;5.38;;;;;;;51.49;1.84;100938.38;5010158;28;106067;-74
2022/03/09 12:07:12;;;;;;;6.78;4.70;;;;;;;51.85;1.34;100929.13;5009810;28;106038;-73
2022/03/09 12:09:59;;;;;;;7.13;5.17;;;;;;;51.23;1.68;100933.16;5011018;28;106089;-72
2022/03/09 12:12:26;;;;;;;8.13;5.07;;;;;;;51.22;2.06;100928.72;5009723;28;106188;-66
2022/03/09 12:15:06;;;;;;;10.10;5.20;;;;;;;51.51;1.71;100933.06;5009393;28;106899;-68
2022/03/09 12:17:43;;;;;;;7.57;4.97;;;;;;;51.37;1.77;100937.00;5009526;28;106294;-74
2022/03/09 12:20:30;;;;;;;7.82;5.28;;;;;;;51.30;1.54;100941.53;5010603;28;106016;-71
2022/03/09 12:22:55;;;;;;;8.57;5.25;;;;;;;51.40;1.36;100924.75;5009731;28;105772;-66
2022/03/09 12:25:41;;;;;;;7.17;5.03;;;;;;;51.58;1.64;100919.53;5009527;28;106586;-72
2022/03/09 12:28:29;;;;;;;9.13;5.32;;;;;;;50.62;1.61;100925.69;5009329;28;106288;-76
2022/03/09 12:30:56;;;;;;;8.15;5.88;;;;;;;50.57;1.79;100923.38;5010523;28;105851;-70
2022/03/09 12:33:23;;;;;;;8.90;5.60;;;;;;;50.38;1.89;100917.19;5009578;28;105907;-71
2022/03/09 12:35:48;;;;;;;10.40;5.43;;;;;;;50.67;1.88;100913.09;5009346;28;106073;-72
2022/03/09 12:38:14;;;;;;;7.82;5.03;;;;;;;50.15;1.71;100911.47;5009706;28;109848;-73
2022/03/09 12:40:40;;;;;;;7.55;5.00;;;;;;;49.15;1.91;100906.56;5010017;28;106159;-70
2022/03/09 12:43:05;;;;;;;8.07;4.95;;;;;;;49.34;2.06;100908.00;5009882;28;106135;-74
2022/03/09 12:45:49;;;;;;;12.30;5.50;;;;;;;49.90;1.65;100909.75;5008329;28;129577;-66
2022/03/09 12:48:22;;;;;;;6.07;4.72;;;;;;;49.96;1.58;100908.06;5009391;28;106442;-68
2022/03/09 12:50:48;;;;;;;10.10;5.65;;;;;;;50.00;1.79;100906.00;5009675;28;106339;-67
2022/03/09 12:53:20;;;;;;;7.10;5.90;;;;;;;49.96;1.85;100908.06;5008998;28;106155;-79
2022/03/09 12:55:47;;;;;;;7.18;6.40;;;;;;;49.78;1.76;100902.63;5008704;28;106576;-73
2022/03/09 12:58:24;;;;;;;8.77;5.78;;;;;;;49.51;1.95;100899.72;5008422;28;107160;-70
2022/03/09 13:01:01;;;;;;;12.20;5.93;;;;;;;49.12;1.96;100891.22;5009660;28;106125;-74
2022/03/09 13:03:28;;;;;;;8.47;5.40;;;;;;;48.99;2.37;100901.47;5009209;27;106700;-68
2022/03/09 13:05:53;;;;;;;8.40;4.85;;;;;;;49.06;2.03;100901.38;5009138;28;106752;-65
2022/03/09 13:08:18;;;;;;;10.82;4.78;;;;;;;49.07;2.05;100902.22;5009293;28;111170;-68
2022/03/09 13:10:49;;;;;;;5.80;3.95;;;;;;;48.94;1.91;100896.25;5009830;28;106071;-65
2022/03/09 13:13:15;;;;;;;11.07;5.28;;;;;;;49.09;1.91;100902.56;5009110;28;105815;-67
2022/03/09 13:15:48;;;;;;;9.75;5.55;;;;;;;49.20;1.79;100896.81;5008745;28;105971;-69
2022/03/09 13:18:15;;;;;;;6.22;5.57;;;;;;;48.98;1.85;100891.38;5007680;28;106087;-68
2022/03/09 13:20:45;;;;;;;8.57;6.03;;;;;;;48.57;2.21;100895.78;5008890;28;106344;-70
2022/03/09 13:23:27;;;;;;;6.45;5.15;;;;;;;48.57;2.30;100892.13;5007587;28;106167;-67
2022/03/09 13:25:53;;;;;;;7.65;5.70;;;;;;;48.44;2.33;100892.59;5002282;28;105923;-71
2022/03/09 13:28:28;;;;;;;6.43;5.03;;;;;;;47.99;2.34;100897.34;4997002;28;106657;-71
2022/03/09 13:30:54;;;;;;;7.60;5.57;;;;;;;47.61;2.16;100893.06;4998678;28;105901;-69
2022/03/09 13:33:23;;;;;;;10.57;5.78;;;;;;;47.12;2.58;100894.75;4996899;28;106313;-67
2022/03/09 13:35:52;;;;;;;8.52;6.00;;;;;;;47.22;1.90;100885.50;4997440;28;106807;-68
2022/03/09 13:38:24;;;;;;;11.95;6.68;;;;;;;46.97;2.44;100882.69;4995754;28;107569;-68
2022/03/09 13:40:52;;;;;;;8.50;5.95;;;;;;;46.54;2.46;100888.31;4994279;28;106222;-67
2022/03/09 13:43:19;;;;;;;11.05;8.23;;;;;;;46.42;2.64;100881.84;4988215;28;106328;-69
2022/03/09 13:45:44;;;;;;;9.73;6.93;;;;;;;46.51;2.25;100877.88;4988627;28;106567;-72
2022/03/09 13:48:26;;;;;;;13.23;8.50;;;;;;;46.51;2.57;100877.88;4988404;28;106366;-67
2022/03/09 13:51:01;;;;;;;9.05;6.90;;;;;;;46.19;2.57;100882.22;5003813;28;107344;-67
2022/03/09 13:53:32;;;;;;;12.57;7.40;;;;;;;46.03;2.58;100876.13;5008751;28;106253;-65
2022/03/09 13:55:58;;;;;;;10.70;7.13;;;;;;;45.51;2.78;100881.94;5007966;28;106091;-66
2022/03/09 13:58:28;;;;;;;9.48;6.20;;;;;;;44.79;2.85;100880.22;5007731;28;106078;-65
2022/03/09 14:01:12;;;;;;;11.55;7.03;;;;;;;44.08;3.34;100881.13;5008489;28;106419;-65
2022/03/09 14:03:42;;;;;;;13.40;7.35;;;;;;;43.53;3.20;100878.03;4998134;28;106125;-66
2022/03/09 14:06:19;;;;;;;12.48;6.72;;;;;;;42.81;3.56;100882.50;4997343;28;106233;-67
2022/03/09 14:08:46;;;;;;;12.88;6.88;;;;;;;42.13;3.79;100887.63;4998169;28;106811;-66
2022/03/09 14:11:14;;;;;;;12.13;6.80;;;;;;;41.89;3.89;100881.16;4996514;28;106843;-66
2022/03/09 14:14:02;;;;;;;12.18;8.20;;;;;;;41.39;4.08;100883.66;4999263;28;106209;-66
2022/03/09 14:16:43;;;;;;;10.18;7.13;;;;;;;41.18;4.12;100875.56;4996984;28;106772;-67
2022/03/09 14:19:13;;;;;;;10.45;6.30;;;;;;;40.52;4.24;100881.50;4994817;28;105940;-67
2022/03/09 14:21:40;;;;;;;8.18;5.72;;;;;;;40.02;4.29;100885.66;5008903;28;105981;-66
2022/03/09 14:24:06;;;;;;;8.38;5.38;;;;;;;39.14;4.46;100884.16;5008320;28;106327;-67
2022/03/09 14:26:36;;;;;;;7.20;5.30;;;;;;;39.03;4.72;100878.22;5007282;28;107230;-67
2022/03/09 14:29:02;;;;;;;7.03;5.38;;;;;;;38.57;5.20;100883.03;5007290;28;106072;-69
2022/03/09 14:31:28;;;;;;;10.52;4.95;;;;;;;37.70;5.10;100881.78;5007825;28;106137;-67
2022/03/09 14:33:54;;;;;;;8.57;5.35;;;;;;;36.99;5.28;100891.66;5007644;28;106077;-67
2022/03/09 14:36:21;;;;;;;8.98;5.38;;;;;;;36.29;5.90;100878.72;5007264;28;105924;-68
2022/03/09 14:38:47;;;;;;;10.20;5.22;;;;;;;36.14;5.75;100888.34;5007236;28;105962;-68
2022/03/09 14:41:13;;;;;;;9.02;5.85;;;;;;;36.18;5.59;100880.22;5007869;28;106180;-67
2022/03/09 14:43:40;;;;;;;11.93;5.55;;;;;;;35.97;6.22;100877.28;5007778;28;105673;-68
2022/03/09 14:46:06;;;;;;;12.73;5.57;;;;;;;35.45;6.54;100872.50;5007388;28;106216;-67
2022/03/09 14:48:31;;;;;;;11.18;5.35;;;;;;;34.88;6.44;100874.03;5007271;28;106204;-68
2022/03/09 14:50:57;;;;;;;9.45;5.50;;;;;;;34.58;6.63;100885.59;4997568;28;106011;-67
2022/03/09 14:53:28;;;;;;;9.25;5.22;;;;;;;33.76;6.75;100868.16;4987759;28;106357;-73
2022/03/09 14:55:55;;;;;;;7.28;5.05;;;;;;;33.05;7.00;100872.09;4987241;28;106249;-74
2022/03/09 14:58:21;;;;;;;8.30;5.22;;;;;;;32.85;6.98;100869.72;4986987;28;106018;-74
2022/03/09 15:00:50;;;;;;;10.82;5.22;;;;;;;32.53;6.96;100866.66;4988193;28;106166;-71
2022/03/09 15:03:16;;;;;;;7.28;5.22;;;;;;;31.35;7.50;100871.91;4987222;28;105994;-71
2022/03/09 15:05:41;;;;;;;8.57;5.30;;;;;;;29.56;8.43;100866.72;4987656;28;105806;-71
2022/03/09 15:08:07;;;;;;;7.93;5.38;;;;;;;26.96;9.80;100871.28;4987594;28;106070;-70
2022/03/09 15:10:33;;;;;;;10.43;4.95;;;;;;;24.76;11.24;100870.44;4988305;28;106012;-69
2022/03/09 15:12:58;;;;;;;7.85;5.55;;;;;;;22.96;12.20;100881.25;4987652;28;106195;-74
